createdAt,value
2022-10-22T00:00:38.724Z,15.63
2022-10-22T00:03:25.939Z,13.43
2022-10-22T00:05:53.426Z,16.27
2022-10-22T00:08:20.876Z,13.25
2022-10-22T00:10:48.479Z,14.73
2022-10-22T00:13:16.709Z,13.77
2022-10-22T00:15:44.137Z,14.98
2022-10-22T00:18:11.447Z,17.05
2022-10-22T00:20:38.958Z,13.38
2022-10-22T00:23:06.201Z,12.95
2022-10-22T00:25:36.519Z,14.20
2022-10-22T00:28:04.573Z,15.57
2022-10-22T00:30:32.025Z,13.35
2022-10-22T00:32:59.271Z,15.45
2022-10-22T00:35:26.675Z,13.70
2022-10-22T00:37:54.014Z,15.68
2022-10-22T00:40:21.803Z,15.40
2022-10-22T00:42:49.127Z,16.15
2022-10-22T00:45:23.363Z,14.35
2022-10-22T00:48:01.842Z,15.98
2022-10-22T00:51:01.317Z,14.00
2022-10-22T00:53:45.905Z,16.30
2022-10-22T00:56:14.119Z,17.13
2022-10-22T00:58:51.595Z,16.60
2022-10-22T01:01:25.174Z,15.18
2022-10-22T01:03:53.184Z,15.05
2022-10-22T01:06:31.008Z,16.33
2022-10-22T01:09:19.139Z,14.55
2022-10-22T01:12:13.290Z,16.17
2022-10-22T01:15:03.696Z,14.93
2022-10-22T01:18:15.679Z,14.23
2022-10-22T01:20:58.933Z,14.40
2022-10-22T01:23:40.934Z,13.90
2022-10-22T01:26:40.593Z,15.32
2022-10-22T01:29:41.433Z,17.67
2022-10-22T01:32:23.423Z,16.35
2022-10-22T01:35:14.149Z,15.77
2022-10-22T01:37:58.181Z,13.77
2022-10-22T01:40:28.361Z,11.93
2022-10-22T01:43:02.583Z,14.57
2022-10-22T01:45:35.882Z,13.00
2022-10-22T01:48:40.915Z,18.23
2022-10-22T01:51:29.611Z,13.55
2022-10-22T01:54:20.702Z,13.88
2022-10-22T01:57:28.950Z,14.07
2022-10-22T02:00:09.844Z,16.23
2022-10-22T02:03:01.120Z,14.95
2022-10-22T02:05:40.989Z,15.65
2022-10-22T02:08:33.659Z,14.98
2022-10-22T02:11:01.551Z,15.32
2022-10-22T02:13:39.008Z,14.57
2022-10-22T02:16:11.290Z,14.20
2022-10-22T02:18:43.786Z,14.80
2022-10-22T02:21:11.596Z,14.30
2022-10-22T02:23:39.581Z,14.32
2022-10-22T02:26:19.712Z,13.45
2022-10-22T02:29:07.093Z,13.38
2022-10-22T02:31:40.701Z,14.75
2022-10-22T02:34:16.458Z,13.93
2022-10-22T02:36:49.637Z,14.35
2022-10-22T02:39:20.995Z,14.98
2022-10-22T02:41:49.087Z,14.20
2022-10-22T02:44:21.546Z,13.90
2022-10-22T02:46:49.799Z,13.40
2022-10-22T02:49:18.009Z,14.80
2022-10-22T02:51:45.365Z,16.35
2022-10-22T02:54:12.882Z,18.33
2022-10-22T02:56:40.101Z,13.70
2022-10-22T02:59:07.552Z,17.88
2022-10-22T03:01:34.751Z,16.50
2022-10-22T03:04:02.226Z,16.95
2022-10-22T03:06:29.447Z,19.13
2022-10-22T03:08:57.795Z,18.17
2022-10-22T03:11:25.039Z,15.13
2022-10-22T03:13:52.417Z,18.05
2022-10-22T03:16:19.584Z,13.95
2022-10-22T03:18:46.934Z,18.25
2022-10-22T03:21:49.281Z,15.77
2022-10-22T03:24:38.786Z,14.63
2022-10-22T03:27:06.233Z,11.68
2022-10-22T03:29:38.686Z,13.65
2022-10-22T03:32:06.474Z,16.67
2022-10-22T03:34:33.939Z,13.18
2022-10-22T03:37:02.824Z,14.00
2022-10-22T03:39:34.144Z,12.73
2022-10-22T03:42:02.337Z,12.80
2022-10-22T03:44:30.900Z,13.77
2022-10-22T03:47:01.639Z,13.23
2022-10-22T03:49:30.378Z,15.98
2022-10-22T03:51:57.709Z,16.92
2022-10-22T03:54:25.128Z,16.33
2022-10-22T03:56:52.285Z,15.55
2022-10-22T03:59:19.643Z,18.00
2022-10-22T04:01:46.785Z,14.88
2022-10-22T04:04:14.326Z,16.42
2022-10-22T04:06:41.468Z,16.75
2022-10-22T04:09:09.003Z,18.58
2022-10-22T04:11:36.202Z,15.60
2022-10-22T04:14:03.656Z,15.13
2022-10-22T04:16:32.701Z,15.90
2022-10-22T04:19:00.162Z,16.00
2022-10-22T04:21:27.401Z,14.27
2022-10-22T04:23:54.869Z,14.25
2022-10-22T04:26:22.523Z,17.35
2022-10-22T04:28:52.076Z,17.42
2022-10-22T04:31:24.848Z,17.25
2022-10-22T04:34:00.900Z,18.88
2022-10-22T04:36:29.621Z,21.45
2022-10-22T04:39:01.563Z,16.80
2022-10-22T04:41:32.763Z,17.50
2022-10-22T04:44:00.963Z,14.85
2022-10-22T04:46:32.568Z,15.13
2022-10-22T04:49:00.269Z,15.82
2022-10-22T04:51:28.140Z,17.05
2022-10-22T04:53:55.829Z,16.92
2022-10-22T04:56:30.381Z,14.50
2022-10-22T04:59:04.099Z,21.67
2022-10-22T05:01:33.859Z,16.55
2022-10-22T05:04:04.265Z,20.63
2022-10-22T05:06:34.842Z,18.85
2022-10-22T05:09:07.479Z,16.55
2022-10-22T05:11:37.964Z,20.15
2022-10-22T05:14:07.922Z,16.45
2022-10-22T05:16:38.148Z,17.35
2022-10-22T05:19:07.772Z,17.75
2022-10-22T05:21:35.631Z,16.08
2022-10-22T05:24:04.127Z,16.80
2022-10-22T05:26:31.316Z,15.38
2022-10-22T05:28:58.804Z,16.70
2022-10-22T05:31:26.245Z,19.05
2022-10-22T05:33:53.619Z,19.20
2022-10-22T05:36:24.874Z,15.43
2022-10-22T05:38:52.514Z,18.77
2022-10-22T05:41:26.323Z,19.83
2022-10-22T05:43:59.109Z,19.63
2022-10-22T05:46:29.893Z,18.17
2022-10-22T05:49:06.443Z,15.68
2022-10-22T05:51:37.461Z,18.63
2022-10-22T05:54:08.062Z,17.45
2022-10-22T05:56:37.095Z,21.10
2022-10-22T05:59:05.076Z,17.83
2022-10-22T06:01:35.699Z,16.38
2022-10-22T06:04:10.285Z,15.88
2022-10-22T06:06:49.238Z,15.60
2022-10-22T06:09:27.467Z,17.33
2022-10-22T06:11:55.857Z,23.15
2022-10-22T06:14:24.084Z,22.88
2022-10-22T06:16:52.731Z,27.80
2022-10-22T06:19:26.908Z,28.75
2022-10-22T06:21:54.390Z,29.63
2022-10-22T06:24:24.901Z,29.30
2022-10-22T06:26:52.757Z,30.98
2022-10-22T06:29:20.564Z,28.10
2022-10-22T06:31:48.606Z,21.40
2022-10-22T06:34:18.987Z,24.05
2022-10-22T06:36:47.087Z,20.73
2022-10-22T06:39:17.806Z,21.63
2022-10-22T06:41:45.971Z,22.73
2022-10-22T06:44:18.657Z,20.45
2022-10-22T06:46:49.030Z,20.00
2022-10-22T06:49:17.962Z,20.05
2022-10-22T06:51:45.508Z,21.15
2022-10-22T06:54:12.956Z,20.90
2022-10-22T06:56:40.235Z,21.15
2022-10-22T06:59:07.716Z,19.73
2022-10-22T07:01:36.636Z,18.45
2022-10-22T07:04:05.982Z,21.08
2022-10-22T07:06:33.489Z,22.75
2022-10-22T07:09:01.054Z,18.30
2022-10-22T07:11:32.912Z,16.90
2022-10-22T07:14:01.224Z,18.80
2022-10-22T07:16:31.334Z,16.45
2022-10-22T07:19:02.254Z,17.13
2022-10-22T07:21:31.021Z,17.30
2022-10-22T07:23:59.323Z,20.90
2022-10-22T07:26:31.023Z,20.88
2022-10-22T07:29:00.709Z,18.20
2022-10-22T07:31:28.564Z,22.38
2022-10-22T07:33:56.835Z,19.23
2022-10-22T07:36:24.545Z,19.40
2022-10-22T07:38:57.667Z,22.05
2022-10-22T07:41:26.772Z,18.60
2022-10-22T07:43:54.505Z,17.52
2022-10-22T07:46:22.598Z,15.65
2022-10-22T07:48:50.167Z,19.30
2022-10-22T07:51:18.336Z,14.95
2022-10-22T07:53:46.230Z,17.02
2022-10-22T07:56:14.068Z,17.02
2022-10-22T07:58:41.764Z,15.48
2022-10-22T08:01:09.190Z,16.33
2022-10-22T08:03:36.704Z,13.10
2022-10-22T08:06:04.682Z,16.42
2022-10-22T08:08:32.354Z,16.55
2022-10-22T08:11:01.280Z,16.83
2022-10-22T08:13:32.935Z,16.42
2022-10-22T08:16:01.187Z,18.67
2022-10-22T08:18:30.324Z,14.85
2022-10-22T08:20:58.143Z,16.27
2022-10-22T08:23:28.292Z,13.25
2022-10-22T08:25:57.598Z,16.30
2022-10-22T08:28:26.155Z,20.73
2022-10-22T08:30:53.452Z,15.57
2022-10-22T08:33:21.154Z,16.77
2022-10-22T08:35:50.835Z,17.85
2022-10-22T08:38:19.767Z,20.42
2022-10-22T08:41:08.863Z,16.70
2022-10-22T08:43:57.286Z,19.67
2022-10-22T08:47:22.497Z,21.45
2022-10-22T08:49:50.572Z,54.88
2022-10-22T08:52:20.057Z,30.00
2022-10-22T08:55:00.098Z,35.25
2022-10-22T08:57:51.381Z,20.05
2022-10-22T09:00:37.936Z,15.80
2022-10-22T09:03:28.207Z,18.02
2022-10-22T09:06:14.852Z,19.52
2022-10-22T09:08:46.251Z,19.85
2022-10-22T09:11:13.633Z,17.30
2022-10-22T09:13:44.779Z,19.73
2022-10-22T09:16:49.361Z,19.60
2022-10-22T09:19:31.965Z,19.67
2022-10-22T09:25:16.683Z,23.23
2022-10-22T09:27:44.317Z,23.10
2022-10-22T09:30:19.510Z,26.67
2022-10-22T09:32:48.043Z,23.20
2022-10-22T09:35:21.699Z,22.00
2022-10-22T09:37:56.030Z,22.23
2022-10-22T09:40:24.247Z,22.52
2022-10-22T09:42:51.675Z,24.48
2022-10-22T09:45:24.368Z,23.00
2022-10-22T09:48:28.379Z,22.30
2022-10-22T09:51:19.411Z,25.00
2022-10-22T09:53:57.294Z,22.85
2022-10-22T09:56:35.902Z,26.08
2022-10-22T09:59:03.798Z,19.15
2022-10-22T10:01:38.661Z,21.67
2022-10-22T10:04:10.606Z,22.73
2022-10-22T10:06:41.504Z,17.33
2022-10-22T10:09:26.130Z,23.15
2022-10-22T10:12:31.781Z,21.35
2022-10-22T10:15:28.174Z,21.35
2022-10-22T10:18:53.788Z,24.67
2022-10-22T10:21:44.980Z,22.17
2022-10-22T10:25:25.361Z,22.55
2022-10-22T10:27:58.450Z,20.13
2022-10-22T10:30:25.874Z,20.52
2022-10-22T10:32:59.378Z,22.75
2022-10-22T10:36:04.079Z,25.73
2022-10-22T10:39:24.121Z,24.75
2022-10-22T10:42:22.430Z,22.05
2022-10-22T10:45:37.890Z,19.08
2022-10-22T10:48:27.322Z,15.80
2022-10-22T10:51:07.468Z,18.23
2022-10-22T10:54:02.088Z,23.08
2022-10-22T10:57:19.514Z,22.67
2022-10-22T11:00:21.256Z,23.60
2022-10-22T11:03:00.049Z,21.08
2022-10-22T11:05:34.270Z,20.73
2022-10-22T11:08:33.000Z,21.80
2022-10-22T11:11:21.613Z,17.90
2022-10-22T11:13:54.592Z,21.70
2022-10-22T11:16:32.115Z,17.67
2022-10-22T11:19:51.552Z,19.23
2022-10-22T11:23:18.357Z,18.20
2022-10-22T11:25:49.786Z,21.17
2022-10-22T11:28:16.893Z,19.40
2022-10-22T11:30:52.122Z,23.60
2022-10-22T11:33:27.226Z,25.00
2022-10-22T11:36:05.425Z,23.83
2022-10-22T11:38:35.761Z,23.13
2022-10-22T11:41:30.578Z,29.85
2022-10-22T11:44:23.662Z,25.98
2022-10-22T11:46:55.925Z,24.20
2022-10-22T11:49:43.280Z,26.25
2022-10-22T11:52:36.697Z,22.67
2022-10-22T11:55:46.605Z,27.08
2022-10-22T11:58:28.861Z,22.92
2022-10-22T12:00:58.766Z,26.63
2022-10-22T12:03:32.283Z,24.83
2022-10-22T12:06:05.343Z,27.85
2022-10-22T12:08:34.370Z,26.50
2022-10-22T12:11:16.846Z,25.63
2022-10-22T12:14:02.102Z,25.60
2022-10-22T12:16:57.832Z,26.25
2022-10-22T12:19:43.412Z,27.15
2022-10-22T12:22:10.553Z,25.05
2022-10-22T12:24:45.810Z,23.73
2022-10-22T12:27:42.473Z,29.40
2022-10-22T12:30:24.231Z,25.48
2022-10-22T12:33:00.942Z,26.85
2022-10-22T12:35:57.782Z,28.05
2022-10-22T12:38:25.822Z,26.45
2022-10-22T12:40:57.154Z,24.52
2022-10-22T12:43:29.827Z,25.85
2022-10-22T12:45:59.797Z,27.25
2022-10-22T12:48:36.406Z,24.42
2022-10-22T12:51:08.234Z,27.13
2022-10-22T12:53:46.397Z,26.60
2022-10-22T12:56:22.258Z,25.38
2022-10-22T12:59:13.256Z,25.48
2022-10-22T13:01:43.593Z,23.92
2022-10-22T13:04:28.276Z,23.25
2022-10-22T13:07:12.294Z,22.15
2022-10-22T13:10:01.066Z,24.27
2022-10-22T13:12:36.736Z,24.17
2022-10-22T13:15:23.415Z,21.83
2022-10-22T13:17:50.965Z,20.85
2022-10-22T13:20:22.432Z,24.67
2022-10-22T13:23:05.120Z,22.38
2022-10-22T13:25:39.683Z,25.70
2022-10-22T13:28:18.345Z,23.75
2022-10-22T13:31:00.788Z,22.75
2022-10-22T13:33:37.205Z,24.20
2022-10-22T13:36:05.954Z,24.80
2022-10-22T13:38:33.598Z,26.45
2022-10-22T13:41:03.219Z,23.35
2022-10-22T13:43:30.910Z,28.63
2022-10-22T13:46:00.506Z,27.77
2022-10-22T13:48:30.708Z,26.85
2022-10-22T13:50:58.146Z,30.40
2022-10-22T13:53:28.893Z,31.90
2022-10-22T13:55:56.433Z,30.35
2022-10-22T13:58:25.061Z,29.45
2022-10-22T14:00:57.365Z,30.35
2022-10-22T14:03:33.363Z,31.98
2022-10-22T14:06:01.805Z,26.70
2022-10-22T14:08:29.425Z,30.08
2022-10-22T14:10:56.839Z,34.55
2022-10-22T14:13:24.349Z,28.42
2022-10-22T14:15:52.886Z,29.65
2022-10-22T14:18:31.661Z,30.90
2022-10-22T14:21:05.218Z,29.08
2022-10-22T14:23:35.109Z,31.75
2022-10-22T14:26:04.054Z,32.72
2022-10-22T14:28:37.188Z,32.70
2022-10-22T14:31:11.375Z,31.17
2022-10-22T14:33:40.822Z,34.45
2022-10-22T14:36:11.498Z,34.45
2022-10-22T14:38:38.845Z,37.72
2022-10-22T14:41:22.423Z,38.10
2022-10-22T14:43:52.064Z,37.20
2022-10-22T14:46:19.746Z,35.83
2022-10-22T14:48:48.023Z,37.40
2022-10-22T14:51:21.368Z,36.63
2022-10-22T14:53:49.347Z,36.22
2022-10-22T14:56:21.471Z,35.60
2022-10-22T14:58:49.601Z,36.92
2022-10-22T15:01:17.837Z,36.50
2022-10-22T15:03:45.317Z,35.22
2022-10-22T15:06:12.455Z,37.30
2022-10-22T15:08:39.905Z,40.65
2022-10-22T15:11:12.247Z,47.65
2022-10-22T15:13:41.426Z,44.72
2022-10-22T15:16:11.672Z,42.05
2022-10-22T15:18:39.205Z,38.17
2022-10-22T15:21:15.721Z,39.55
2022-10-22T15:23:43.507Z,41.60
2022-10-22T15:26:13.208Z,39.47
2022-10-22T15:28:41.864Z,38.28
2022-10-22T15:31:13.249Z,43.22
2022-10-22T15:33:43.039Z,45.85
2022-10-22T15:36:16.301Z,44.63
2022-10-22T15:38:43.978Z,46.03
2022-10-22T15:41:13.571Z,41.22
2022-10-22T15:43:41.071Z,44.65
2022-10-22T15:46:19.252Z,44.55
2022-10-22T15:48:46.838Z,47.42
2022-10-22T15:51:19.678Z,42.75
2022-10-22T15:53:59.208Z,48.60
2022-10-22T15:56:29.763Z,46.30
2022-10-22T15:59:04.015Z,47.33
2022-10-22T16:01:35.098Z,44.25
2022-10-22T16:04:03.597Z,41.50
2022-10-22T16:06:41.257Z,44.72
2022-10-22T16:09:14.482Z,44.30
2022-10-22T16:11:42.901Z,38.08
2022-10-22T16:14:16.355Z,39.65
2022-10-22T16:16:50.349Z,43.20
2022-10-22T16:19:20.707Z,51.10
2022-10-22T16:21:51.663Z,48.10
2022-10-22T16:24:20.316Z,53.85
2022-10-22T16:26:48.422Z,60.45
2022-10-22T16:29:16.494Z,56.08
2022-10-22T16:31:44.123Z,54.45
2022-10-22T16:34:13.029Z,56.80
2022-10-22T16:36:40.316Z,56.80
2022-10-22T16:39:08.406Z,54.60
2022-10-22T16:41:36.433Z,48.85
2022-10-22T16:44:08.770Z,44.97
2022-10-22T16:46:39.571Z,48.35
2022-10-22T16:49:07.989Z,49.90
2022-10-22T16:51:35.733Z,44.22
2022-10-22T16:54:05.594Z,44.67
2022-10-22T16:56:36.597Z,46.72
2022-10-22T16:59:04.015Z,44.03
2022-10-22T17:01:31.292Z,49.45
2022-10-22T17:04:02.139Z,49.17
2022-10-22T17:06:29.384Z,49.05
2022-10-22T17:08:56.985Z,48.38
2022-10-22T17:11:25.196Z,49.67
2022-10-22T17:13:54.584Z,52.97
2022-10-22T17:16:25.048Z,52.25
2022-10-22T17:18:54.879Z,56.85
2022-10-22T17:21:22.881Z,56.88
2022-10-22T17:23:56.543Z,55.53
2022-10-22T17:26:26.914Z,51.53
2022-10-22T17:28:55.171Z,55.05
2022-10-22T17:31:26.842Z,51.60
2022-10-22T17:33:56.546Z,54.70
2022-10-22T17:36:25.008Z,67.10
2022-10-22T17:38:56.951Z,58.08
2022-10-22T17:41:31.282Z,56.40
2022-10-22T17:44:04.165Z,57.78
2022-10-22T17:46:32.677Z,56.00
2022-10-22T17:49:05.184Z,48.45
2022-10-22T17:51:33.153Z,49.42
2022-10-22T17:54:02.417Z,44.67
2022-10-22T17:56:31.958Z,49.40
2022-10-22T17:59:02.190Z,41.67
2022-10-22T18:01:36.068Z,43.65
2022-10-22T18:04:08.055Z,44.15
2022-10-22T18:06:35.968Z,45.80
2022-10-22T18:09:11.512Z,43.38
2022-10-22T18:11:40.731Z,49.10
2022-10-22T18:14:08.410Z,42.47
2022-10-22T18:16:36.072Z,46.17
2022-10-22T18:19:03.787Z,42.42
2022-10-22T18:21:31.467Z,44.70
2022-10-22T18:23:59.705Z,43.20
2022-10-22T18:26:27.319Z,49.53
2022-10-22T18:28:57.154Z,43.22
2022-10-22T18:31:27.969Z,49.25
2022-10-22T18:33:56.178Z,46.90
2022-10-22T18:36:26.590Z,47.65
2022-10-22T18:39:02.176Z,48.03
2022-10-22T18:41:32.130Z,47.53
2022-10-22T18:44:03.274Z,55.50
2022-10-22T18:46:34.620Z,58.05
2022-10-22T18:49:02.149Z,64.78
2022-10-22T18:51:31.683Z,64.70
2022-10-22T18:54:05.746Z,63.47
2022-10-22T18:56:40.819Z,61.92
2022-10-22T18:59:25.393Z,56.05
2022-10-22T19:01:54.853Z,62.15
2022-10-22T19:04:22.491Z,62.42
2022-10-22T19:06:49.995Z,63.22
2022-10-22T19:09:17.843Z,62.63
2022-10-22T19:11:46.211Z,63.17
2022-10-22T19:14:22.195Z,59.90
2022-10-22T19:16:50.028Z,59.30
2022-10-22T19:19:21.681Z,55.65
2022-10-22T19:21:49.635Z,53.15
2022-10-22T19:24:19.677Z,49.05
2022-10-22T19:26:48.538Z,44.90
2022-10-22T19:29:20.005Z,47.80
2022-10-22T19:31:48.599Z,43.15
2022-10-22T19:34:16.094Z,39.17
2022-10-22T19:36:43.397Z,39.90
2022-10-22T19:39:14.587Z,45.92
2022-10-22T19:41:42.001Z,47.75
2022-10-22T19:44:11.010Z,42.47
2022-10-22T19:46:38.455Z,44.45
2022-10-22T19:49:06.563Z,41.70
2022-10-22T19:51:34.691Z,42.45
2022-10-22T19:54:06.737Z,41.72
2022-10-22T19:56:35.624Z,42.55
2022-10-22T19:59:05.398Z,40.05
2022-10-22T20:01:32.949Z,39.38
2022-10-22T20:04:01.674Z,43.72
2022-10-22T20:06:30.035Z,39.45
2022-10-22T20:08:58.324Z,39.80
2022-10-22T20:11:29.729Z,39.60
2022-10-22T20:13:58.819Z,37.13
2022-10-22T20:16:30.091Z,31.55
2022-10-22T20:19:05.395Z,39.65
2022-10-22T20:21:33.900Z,38.00
2022-10-22T20:24:02.041Z,39.03
2022-10-22T20:26:29.628Z,37.20
2022-10-22T20:28:58.153Z,42.30
2022-10-22T20:31:29.304Z,43.10
2022-10-22T20:34:01.864Z,39.90
2022-10-22T20:36:31.508Z,43.00
2022-10-22T20:39:06.085Z,40.80
2022-10-22T20:41:37.844Z,39.00
2022-10-22T20:44:05.428Z,47.67
2022-10-22T20:46:33.608Z,41.85
2022-10-22T20:49:07.812Z,47.78
2022-10-22T20:51:38.642Z,47.25
2022-10-22T20:54:07.805Z,50.90
2022-10-22T20:56:37.534Z,54.47
2022-10-22T20:59:05.921Z,52.67
2022-10-22T21:01:37.526Z,51.05
2022-10-22T21:04:06.328Z,51.35
2022-10-22T21:06:38.199Z,52.05
2022-10-22T21:09:08.541Z,49.38
2022-10-22T21:11:37.398Z,48.53
2022-10-22T21:14:07.725Z,52.58
2022-10-22T21:16:36.168Z,54.72
2022-10-22T21:19:03.576Z,52.35
2022-10-22T21:21:30.797Z,52.15
2022-10-22T21:23:58.168Z,53.22
2022-10-22T21:26:25.412Z,51.42
2022-10-22T21:28:52.941Z,54.53
2022-10-22T21:31:25.966Z,52.58
2022-10-22T21:33:54.303Z,54.20
2022-10-22T21:36:23.638Z,52.65
2022-10-22T21:38:52.811Z,57.10
2022-10-22T21:41:23.965Z,55.42
2022-10-22T21:43:52.046Z,56.00
2022-10-22T21:46:23.029Z,54.40
2022-10-22T21:49:03.273Z,53.22
2022-10-22T21:51:35.183Z,49.70
2022-10-22T21:54:02.623Z,49.55
2022-10-22T21:56:34.907Z,51.33
2022-10-22T21:59:04.833Z,52.70
2022-10-22T22:01:32.234Z,53.55
2022-10-22T22:04:00.326Z,50.20
2022-10-22T22:06:33.098Z,47.58
2022-10-22T22:09:02.988Z,53.80
2022-10-22T22:11:31.279Z,51.70
2022-10-22T22:13:59.686Z,53.35
2022-10-22T22:16:32.989Z,51.00
2022-10-22T22:19:05.886Z,59.17
2022-10-22T22:21:34.968Z,55.67
2022-10-22T22:24:02.441Z,57.80
2022-10-22T22:26:30.328Z,53.05
2022-10-22T22:29:02.017Z,56.08
2022-10-22T22:31:33.094Z,51.35
2022-10-22T22:34:00.497Z,57.15
2022-10-22T22:36:28.443Z,56.08
2022-10-22T22:38:57.003Z,50.85
2022-10-22T22:41:24.354Z,47.17
2022-10-22T22:43:51.747Z,54.92
2022-10-22T22:46:18.924Z,51.47
2022-10-22T22:48:49.658Z,58.53
2022-10-22T22:51:17.969Z,54.80
2022-10-22T22:53:45.819Z,52.15
2022-10-22T22:56:20.974Z,61.72
2022-10-22T22:58:49.639Z,65.72
2022-10-22T23:01:26.959Z,59.38
2022-10-22T23:04:19.043Z,61.80
2022-10-22T23:06:46.656Z,60.10
2022-10-22T23:09:16.627Z,56.88
2022-10-22T23:11:46.170Z,58.00
2022-10-22T23:14:16.213Z,56.60
2022-10-22T23:16:50.713Z,64.32
2022-10-22T23:19:21.355Z,60.38
2022-10-22T23:21:53.121Z,59.08
2022-10-22T23:24:25.386Z,58.65
2022-10-22T23:26:55.054Z,59.58
2022-10-22T23:29:26.932Z,61.72
2022-10-22T23:31:55.828Z,62.00
2022-10-22T23:34:25.301Z,64.72
2022-10-22T23:36:54.482Z,63.78
2022-10-22T23:39:27.071Z,57.33
2022-10-22T23:41:54.779Z,57.42
2022-10-22T23:44:24.173Z,55.67
2022-10-22T23:46:51.765Z,55.90
2022-10-22T23:49:19.282Z,53.10
2022-10-22T23:51:46.552Z,49.25
2022-10-22T23:54:17.856Z,48.45
2022-10-22T23:56:45.893Z,51.05
